Time;durP1;ratioP1;P1;durP2;ratioP2;P2;SDS_P1;SDS_P2;PMS_P1;PMS_P2;Temp;Humidity;BMP_temperature;BMP_pressure;BME280_temperature;BME280_humidity;BME280_pressure;Samples;Min_cycle;Max_cycle;Signal;HPM_P1;HPM_P2
2023/06/10 00:00:27;;;;;;;9.80;4.82;;;;;;;;;;5055209;28;20036;-71
2023/06/10 00:03:13;;;;;;;7.05;5.05;;;;;;;;;;5067093;28;20043;-63
2023/06/10 00:05:58;;;;;;;7.72;4.80;;;;;;;;;;5062728;28;20073;-67
2023/06/10 00:08:43;;;;;;;8.10;4.30;;;;;;;;;;5060916;28;20052;-68
2023/06/10 00:11:28;;;;;;;9.52;5.28;;;;;;;;;;5068233;28;20620;-66
2023/06/10 00:14:14;;;;;;;8.07;5.50;;;;;;;;;;5061355;28;20051;-66
2023/06/10 00:16:59;;;;;;;7.07;4.75;;;;;;;;;;5029037;28;20121;-65
2023/06/10 00:19:46;;;;;;;7.60;4.78;;;;;;;;;;5061176;28;20578;-78
2023/06/10 00:22:32;;;;;;;6.90;4.95;;;;;;;;;;5059592;28;20039;-77
2023/06/10 00:25:17;;;;;;;8.07;5.43;;;;;;;;;;5055156;28;20025;-79
2023/06/10 00:28:02;;;;;;;7.93;5.30;;;;;;;;;;5059530;28;20033;-79
2023/06/10 00:30:48;;;;;;;7.25;5.05;;;;;;;;;;5060163;28;20036;-78
2023/06/10 00:33:33;;;;;;;7.85;5.32;;;;;;;;;;5058385;28;20035;-77
2023/06/10 00:36:19;;;;;;;7.18;5.32;;;;;;;;;;5059957;28;20427;-77
2023/06/10 00:39:04;;;;;;;7.28;5.55;;;;;;;;;;5052468;28;20379;-68
2023/06/10 00:41:49;;;;;;;8.40;5.03;;;;;;;;;;5064651;28;20627;-64
2023/06/10 00:44:35;;;;;;;8.77;5.32;;;;;;;;;;5066109;28;20036;-66
2023/06/10 00:47:20;;;;;;;8.30;4.97;;;;;;;;;;5064898;28;20063;-66
2023/06/10 00:50:06;;;;;;;8.32;5.38;;;;;;;;;;5062908;28;20479;-65
2023/06/10 00:52:52;;;;;;;8.07;5.53;;;;;;;;;;5058049;28;20032;-67
2023/06/10 00:55:37;;;;;;;7.53;4.70;;;;;;;;;;5067123;28;20459;-63
2023/06/10 00:58:23;;;;;;;7.30;5.63;;;;;;;;;;5059449;28;20369;-78
2023/06/10 01:01:10;;;;;;;8.48;5.38;;;;;;;;;;5060300;28;20028;-70
2023/06/10 01:03:58;;;;;;;8.90;5.03;;;;;;;;;;5063435;28;20051;-72
2023/06/10 01:07:02;;;;;;;7.38;5.15;;;;;;;;;;5066557;28;20032;-70
2023/06/10 01:09:51;;;;;;;6.82;5.07;;;;;;;;;;5062715;28;20040;-71
2023/06/10 01:12:42;;;;;;;6.60;4.93;;;;;;;;;;5068521;28;20087;-70
2023/06/10 01:15:31;;;;;;;8.40;5.05;;;;;;;;;;5063153;28;20627;-70
2023/06/10 01:18:16;;;;;;;10.02;4.95;;;;;;;;;;5061040;28;20294;-63
2023/06/10 01:21:02;;;;;;;7.93;5.40;;;;;;;;;;5079926;28;20031;-68
2023/06/10 01:23:47;;;;;;;6.47;5.05;;;;;;;;;;5057464;28;20032;-67
2023/06/10 01:26:34;;;;;;;6.78;5.18;;;;;;;;;;5055866;28;20472;-66
2023/06/10 01:29:21;;;;;;;8.38;5.97;;;;;;;;;;5066523;28;20070;-66
2023/06/10 01:32:11;;;;;;;7.30;5.03;;;;;;;;;;5064634;28;20479;-66
2023/06/10 01:34:57;;;;;;;8.45;5.75;;;;;;;;;;5056292;28;20510;-79
2023/06/10 01:37:44;;;;;;;10.45;5.53;;;;;;;;;;5066329;28;20025;-80
2023/06/10 01:40:30;;;;;;;6.80;4.93;;;;;;;;;;5061054;28;20034;-79
2023/06/10 01:43:16;;;;;;;8.27;5.72;;;;;;;;;;5059554;28;20032;-79
2023/06/10 01:46:01;;;;;;;9.20;5.30;;;;;;;;;;5057097;28;20063;-77
2023/06/10 01:48:46;;;;;;;11.07;5.03;;;;;;;;;;5057538;28;20048;-81
2023/06/10 01:51:31;;;;;;;8.57;5.65;;;;;;;;;;5070266;28;20081;-75
2023/06/10 01:54:17;;;;;;;7.57;4.80;;;;;;;;;;5062176;28;20312;-68
2023/06/10 01:57:02;;;;;;;9.25;5.35;;;;;;;;;;5057012;28;20025;-69
2023/06/10 01:59:47;;;;;;;10.25;5.60;;;;;;;;;;5065279;28;20497;-70
2023/06/10 02:02:32;;;;;;;8.20;5.18;;;;;;;;;;5057612;28;20328;-71
2023/06/10 02:05:18;;;;;;;7.47;5.35;;;;;;;;;;5057947;28;20040;-69
2023/06/10 02:08:03;;;;;;;9.27;6.05;;;;;;;;;;5051148;28;20029;-71
2023/06/10 02:10:49;;;;;;;8.27;5.20;;;;;;;;;;5058132;28;20472;-71
2023/06/10 02:13:34;;;;;;;7.25;5.07;;;;;;;;;;5059078;28;20145;-67
2023/06/10 02:16:21;;;;;;;7.97;5.75;;;;;;;;;;5060828;28;20048;-64
2023/06/10 02:19:06;;;;;;;8.20;5.78;;;;;;;;;;5064947;28;20046;-62
2023/06/10 02:21:52;;;;;;;8.35;4.97;;;;;;;;;;5064781;28;20036;-63
2023/06/10 02:24:40;;;;;;;8.73;5.00;;;;;;;;;;5065971;28;20036;-63
2023/06/10 02:27:25;;;;;;;7.18;5.22;;;;;;;;;;5060074;28;20028;-71
2023/06/10 02:30:11;;;;;;;7.88;5.47;;;;;;;;;;5062710;28;20511;-66
2023/06/10 02:32:56;;;;;;;8.60;5.53;;;;;;;;;;5063587;28;20020;-72
2023/06/10 02:35:41;;;;;;;10.23;5.68;;;;;;;;;;5059814;28;20032;-73
2023/06/10 02:38:26;;;;;;;8.65;5.20;;;;;;;;;;5060483;28;20024;-71
2023/06/10 02:41:12;;;;;;;8.38;5.93;;;;;;;;;;5051718;28;20036;-70
2023/06/10 02:43:57;;;;;;;7.03;5.05;;;;;;;;;;5061982;28;20178;-71
2023/06/10 02:46:42;;;;;;;7.97;5.22;;;;;;;;;;5060922;28;20395;-73
2023/06/10 02:49:28;;;;;;;9.00;5.22;;;;;;;;;;5057151;28;20036;-71
2023/06/10 02:52:13;;;;;;;6.93;5.18;;;;;;;;;;5056308;28;20480;-71
2023/06/10 02:54:58;;;;;;;8.07;6.03;;;;;;;;;;5058318;28;20045;-72
2023/06/10 02:57:43;;;;;;;9.02;5.70;;;;;;;;;;5046113;28;20029;-71
2023/06/10 03:00:29;;;;;;;8.10;5.43;;;;;;;;;;5065347;28;20356;-71
2023/06/10 03:03:14;;;;;;;8.38;5.90;;;;;;;;;;5063722;28;20040;-71
2023/06/10 03:05:59;;;;;;;7.32;5.38;;;;;;;;;;5063372;28;20044;-66
2023/06/10 03:08:45;;;;;;;10.70;5.63;;;;;;;;;;5062427;28;20032;-65
2023/06/10 03:11:31;;;;;;;7.68;5.95;;;;;;;;;;5063560;28;20426;-68
2023/06/10 03:14:16;;;;;;;9.38;5.40;;;;;;;;;;5079824;28;20048;-65
2023/06/10 03:17:02;;;;;;;9.27;5.95;;;;;;;;;;5066584;28;20024;-65
2023/06/10 03:19:48;;;;;;;7.55;5.13;;;;;;;;;;5062781;28;20048;-65
2023/06/10 03:22:33;;;;;;;8.38;6.20;;;;;;;;;;5066483;28;20085;-66
2023/06/10 03:25:20;;;;;;;10.65;6.90;;;;;;;;;;5061576;28;20112;-73
2023/06/10 03:28:05;;;;;;;7.97;5.20;;;;;;;;;;5064498;28;20094;-74
2023/06/10 03:30:51;;;;;;;7.93;5.00;;;;;;;;;;5064500;28;20102;-75
2023/06/10 03:33:37;;;;;;;7.57;5.30;;;;;;;;;;5049797;28;20120;-74
2023/06/10 03:36:22;;;;;;;7.82;5.47;;;;;;;;;;5064666;28;20148;-73
2023/06/10 03:39:07;;;;;;;7.60;5.53;;;;;;;;;;5066258;28;20610;-73
2023/06/10 03:41:52;;;;;;;10.07;6.15;;;;;;;;;;5053549;28;20053;-66
2023/06/10 03:44:38;;;;;;;7.10;5.78;;;;;;;;;;5063753;28;20043;-64
2023/06/10 03:47:23;;;;;;;9.07;5.65;;;;;;;;;;5057302;28;20236;-65
2023/06/10 03:50:08;;;;;;;8.77;5.85;;;;;;;;;;5065139;28;20043;-65
2023/06/10 03:52:54;;;;;;;8.10;5.57;;;;;;;;;;5066222;28;20032;-64
2023/06/10 03:55:39;;;;;;;7.93;5.40;;;;;;;;;;5055404;28;20067;-64
2023/06/10 03:58:24;;;;;;;9.65;5.22;;;;;;;;;;5056138;28;20036;-62
2023/06/10 04:01:10;;;;;;;7.82;5.63;;;;;;;;;;5046355;28;20031;-66
2023/06/10 04:03:55;;;;;;;7.15;5.22;;;;;;;;;;5066689;28;20039;-73
2023/06/10 04:06:41;;;;;;;7.40;5.47;;;;;;;;;;5053811;28;20093;-74
2023/06/10 04:09:26;;;;;;;9.00;6.20;;;;;;;;;;5064958;28;20059;-74
2023/06/10 04:12:11;;;;;;;7.13;5.30;;;;;;;;;;5063750;28;20042;-75
2023/06/10 04:14:56;;;;;;;9.75;6.13;;;;;;;;;;5063692;28;20133;-74
2023/06/10 04:17:42;;;;;;;8.35;5.60;;;;;;;;;;5064764;28;20020;-74
2023/06/10 04:20:28;;;;;;;7.47;5.10;;;;;;;;;;5066204;28;20483;-74
2023/06/10 04:23:13;;;;;;;7.68;5.15;;;;;;;;;;5058411;28;20028;-70
2023/06/10 04:25:59;;;;;;;7.70;5.03;;;;;;;;;;5065863;28;20032;-71
2023/06/10 04:28:44;;;;;;;7.47;5.10;;;;;;;;;;5068517;28;20522;-69
2023/06/10 04:31:29;;;;;;;8.32;5.72;;;;;;;;;;5060972;28;20035;-70
2023/06/10 04:34:15;;;;;;;8.68;5.13;;;;;;;;;;5069758;28;20587;-69
2023/06/10 04:37:00;;;;;;;8.63;6.07;;;;;;;;;;5060522;28;20040;-66
2023/06/10 04:39:45;;;;;;;7.68;4.78;;;;;;;;;;5070317;28;20528;-77
2023/06/10 04:42:31;;;;;;;6.97;5.00;;;;;;;;;;5071397;28;20017;-77
2023/06/10 04:45:16;;;;;;;7.30;5.63;;;;;;;;;;5071356;28;20036;-78
2023/06/10 04:48:01;;;;;;;9.75;6.10;;;;;;;;;;5065465;28;20028;-80
2023/06/10 04:50:47;;;;;;;8.07;5.40;;;;;;;;;;5056701;28;20031;-79
2023/06/10 04:53:32;;;;;;;8.25;5.90;;;;;;;;;;5071010;28;20024;-78
2023/06/10 04:56:17;;;;;;;7.18;5.07;;;;;;;;;;5068764;28;20605;-64
2023/06/10 04:59:02;;;;;;;6.63;4.68;;;;;;;;;;5059470;28;20034;-75
2023/06/10 05:01:48;;;;;;;8.30;5.60;;;;;;;;;;5059355;28;20115;-74
2023/06/10 05:04:33;;;;;;;6.32;5.25;;;;;;;;;;5062587;28;20028;-75
2023/06/10 05:07:18;;;;;;;7.72;5.07;;;;;;;;;;5070049;28;20051;-74
2023/06/10 05:10:04;;;;;;;7.75;5.47;;;;;;;;;;5064350;28;20475;-74
2023/06/10 05:12:49;;;;;;;8.75;5.60;;;;;;;;;;5064350;28;20395;-74
2023/06/10 05:15:34;;;;;;;7.88;5.15;;;;;;;;;;5037327;28;20125;-71
2023/06/10 05:18:19;;;;;;;8.75;5.75;;;;;;;;;;5043198;28;20025;-66
2023/06/10 05:21:05;;;;;;;7.20;5.30;;;;;;;;;;5018685;28;20477;-65
2023/06/10 05:23:50;;;;;;;10.48;5.43;;;;;;;;;;5030607;28;20037;-65
2023/06/10 05:26:39;;;;;;;7.03;5.03;;;;;;;;;;5027493;28;20052;-66
2023/06/10 05:29:24;;;;;;;6.90;4.95;;;;;;;;;;5030717;28;20029;-67
2023/06/10 05:32:09;;;;;;;8.02;5.35;;;;;;;;;;5018067;28;20030;-69
2023/06/10 05:34:54;;;;;;;8.52;5.13;;;;;;;;;;5029312;28;20029;-77
2023/06/10 05:37:40;;;;;;;6.32;4.45;;;;;;;;;;5027210;28;20022;-77
2023/06/10 05:40:25;;;;;;;7.00;4.90;;;;;;;;;;5026398;28;20071;-79
2023/06/10 05:43:11;;;;;;;7.90;5.28;;;;;;;;;;5025512;28;20187;-79
2023/06/10 05:45:56;;;;;;;7.95;4.70;;;;;;;;;;5028768;28;20112;-78
2023/06/10 05:48:41;;;;;;;6.15;4.68;;;;;;;;;;5029277;28;20033;-78
2023/06/10 05:51:28;;;;;;;7.07;4.78;;;;;;;;;;5030949;28;20120;-78
2023/06/10 05:54:13;;;;;;;6.70;4.57;;;;;;;;;;5037321;28;20037;-74
2023/06/10 05:56:58;;;;;;;6.85;4.60;;;;;;;;;;5040232;28;20264;-74
2023/06/10 05:59:43;;;;;;;6.53;4.85;;;;;;;;;;5039699;28;20029;-76
2023/06/10 06:02:29;;;;;;;7.03;4.80;;;;;;;;;;5019456;28;20033;-78
2023/06/10 06:05:14;;;;;;;6.88;4.30;;;;;;;;;;5031314;28;20033;-77
2023/06/10 06:07:59;;;;;;;7.85;4.28;;;;;;;;;;5017763;28;20036;-77
2023/06/10 06:10:45;;;;;;;6.03;4.07;;;;;;;;;;5019813;28;20097;-78
2023/06/10 06:13:30;;;;;;;6.80;4.63;;;;;;;;;;5030008;28;20032;-67
2023/06/10 06:16:15;;;;;;;6.07;4.07;;;;;;;;;;5058732;28;20048;-65
2023/06/10 06:19:00;;;;;;;6.18;3.97;;;;;;;;;;5056170;28;20198;-66
2023/06/10 06:21:45;;;;;;;7.57;4.70;;;;;;;;;;5067038;28;20107;-65
2023/06/10 06:24:31;;;;;;;6.10;4.35;;;;;;;;;;5064931;28;20032;-67
2023/06/10 06:27:16;;;;;;;5.03;3.83;;;;;;;;;;5061691;28;20060;-73
2023/06/10 06:30:01;;;;;;;7.18;4.55;;;;;;;;;;5060797;28;20021;-79
2023/06/10 06:32:47;;;;;;;6.93;4.40;;;;;;;;;;5045244;28;20112;-79
2023/06/10 06:35:35;;;;;;;7.82;4.30;;;;;;;;;;5060016;28;20032;-67
2023/06/10 06:38:20;;;;;;;7.07;4.38;;;;;;;;;;5060232;28;20089;-68
2023/06/10 06:41:06;;;;;;;8.20;4.15;;;;;;;;;;5065140;28;20039;-68
2023/06/10 06:43:51;;;;;;;6.25;4.15;;;;;;;;;;5054741;28;20063;-67
2023/06/10 06:46:37;;;;;;;6.78;4.22;;;;;;;;;;5069294;28;20020;-77
2023/06/10 06:49:22;;;;;;;7.22;4.80;;;;;;;;;;5072146;28;20120;-69
2023/06/10 06:52:07;;;;;;;7.32;5.13;;;;;;;;;;5075154;28;20067;-70
2023/06/10 06:54:52;;;;;;;7.05;4.50;;;;;;;;;;5052787;28;20032;-70
2023/06/10 06:57:38;;;;;;;7.63;4.93;;;;;;;;;;5061008;28;20426;-69
2023/06/10 07:00:23;;;;;;;6.25;4.50;;;;;;;;;;5053038;28;20028;-67
2023/06/10 07:03:08;;;;;;;6.15;4.30;;;;;;;;;;5063232;28;20038;-67
2023/06/10 07:05:53;;;;;;;5.78;4.40;;;;;;;;;;5061113;28;20029;-70
2023/06/10 07:08:38;;;;;;;6.00;4.68;;;;;;;;;;5058955;28;20032;-72
2023/06/10 07:11:25;;;;;;;6.10;4.13;;;;;;;;;;5061572;28;20037;-70
2023/06/10 07:14:10;;;;;;;6.05;4.25;;;;;;;;;;5073857;28;20049;-74
2023/06/10 07:16:55;;;;;;;5.00;4.03;;;;;;;;;;5059627;28;20042;-69
2023/06/10 07:19:40;;;;;;;11.13;4.50;;;;;;;;;;5065013;28;20056;-74
2023/06/10 07:22:26;;;;;;;6.90;4.60;;;;;;;;;;5079248;28;20066;-70
2023/06/10 07:25:11;;;;;;;6.30;4.15;;;;;;;;;;5068493;28;20017;-75
2023/06/10 07:27:56;;;;;;;6.07;4.45;;;;;;;;;;5066899;28;20017;-73
2023/06/10 07:30:42;;;;;;;5.75;4.32;;;;;;;;;;5056167;28;20039;-73
2023/06/10 07:33:27;;;;;;;5.70;4.20;;;;;;;;;;5054589;28;20654;-74
2023/06/10 07:36:12;;;;;;;6.75;4.47;;;;;;;;;;5065922;28;20402;-69
2023/06/10 07:38:57;;;;;;;5.60;4.22;;;;;;;;;;5063021;28;20708;-70
2023/06/10 07:41:43;;;;;;;5.18;4.13;;;;;;;;;;5072385;28;20032;-68
2023/06/10 07:44:28;;;;;;;7.30;4.45;;;;;;;;;;5060804;28;20032;-67
2023/06/10 07:47:13;;;;;;;6.05;3.90;;;;;;;;;;5072888;28;20032;-66
2023/06/10 07:49:58;;;;;;;5.50;3.90;;;;;;;;;;5071880;28;20024;-66
2023/06/10 07:52:44;;;;;;;7.55;4.90;;;;;;;;;;5063707;28;20027;-66
2023/06/10 07:55:29;;;;;;;6.45;4.40;;;;;;;;;;5061804;28;20391;-66
2023/06/10 07:58:14;;;;;;;5.90;4.18;;;;;;;;;;5061403;28;20473;-67
2023/06/10 08:00:59;;;;;;;8.57;4.05;;;;;;;;;;5068419;28;20115;-67
2023/06/10 08:03:45;;;;;;;5.80;4.45;;;;;;;;;;5060929;28;20024;-72
2023/06/10 08:06:30;;;;;;;4.30;3.72;;;;;;;;;;5066511;28;20127;-69
2023/06/10 08:09:16;;;;;;;6.97;4.43;;;;;;;;;;5063406;28;20033;-71
2023/06/10 08:12:01;;;;;;;9.10;5.28;;;;;;;;;;5067571;28;20032;-70
2023/06/10 08:14:46;;;;;;;6.38;4.70;;;;;;;;;;5059464;28;20045;-69
2023/06/10 08:17:32;;;;;;;7.53;4.35;;;;;;;;;;5065779;28;20060;-69
2023/06/10 08:20:17;;;;;;;7.22;4.72;;;;;;;;;;5063074;28;20024;-70
2023/06/10 08:23:03;;;;;;;7.10;5.10;;;;;;;;;;5058508;28;20032;-70
2023/06/10 08:25:48;;;;;;;6.30;4.10;;;;;;;;;;5067978;28;20439;-69
2023/06/10 08:28:33;;;;;;;6.93;4.40;;;;;;;;;;5062960;28;20057;-68
2023/06/10 08:31:18;;;;;;;6.63;4.93;;;;;;;;;;5063251;28;20442;-69
2023/06/10 08:34:03;;;;;;;7.40;5.43;;;;;;;;;;5068021;28;20036;-72
2023/06/10 08:36:55;;;;;;;5.65;4.65;;;;;;;;;;5067828;28;20059;-64
2023/06/10 08:39:40;;;;;;;4.97;4.35;;;;;;;;;;5060140;28;20028;-66
2023/06/10 08:42:33;;;;;;;12.63;6.25;;;;;;;;;;5062674;28;20058;-62
2023/06/10 08:45:18;;;;;;;25.73;9.60;;;;;;;;;;5045179;28;20040;-67
2023/06/10 08:48:06;;;;;;;10.45;5.38;;;;;;;;;;5055789;28;20487;-67
2023/06/10 08:50:51;;;;;;;7.70;4.90;;;;;;;;;;5061533;28;20016;-69
2023/06/10 08:53:38;;;;;;;7.47;4.60;;;;;;;;;;5060918;28;20028;-63
2023/06/10 08:56:26;;;;;;;5.43;3.95;;;;;;;;;;5063347;28;20491;-66
2023/06/10 08:59:11;;;;;;;10.90;5.25;;;;;;;;;;5058947;28;20092;-67
2023/06/10 09:01:57;;;;;;;10.40;5.63;;;;;;;;;;5064675;28;20039;-67
2023/06/10 09:04:43;;;;;;;7.20;4.60;;;;;;;;;;5065584;28;20016;-68
2023/06/10 09:07:31;;;;;;;7.25;4.10;;;;;;;;;;5057559;28;20047;-66
2023/06/10 09:10:16;;;;;;;7.35;4.47;;;;;;;;;;5065364;28;20388;-66
2023/06/10 09:13:01;;;;;;;8.13;4.50;;;;;;;;;;5056165;28;20041;-70
2023/06/10 09:15:48;;;;;;;8.45;4.43;;;;;;;;;;5063732;28;20036;-67
2023/06/10 09:18:34;;;;;;;6.82;4.30;;;;;;;;;;5065921;28;20029;-67
2023/06/10 09:21:21;;;;;;;6.60;4.80;;;;;;;;;;5063145;28;20046;-65
2023/06/10 09:24:06;;;;;;;6.40;4.85;;;;;;;;;;5054069;28;20130;-66
2023/06/10 09:27:08;;;;;;;7.75;4.53;;;;;;;;;;5050584;28;20264;-67
2023/06/10 09:29:54;;;;;;;6.30;4.00;;;;;;;;;;5056582;28;20495;-68
2023/06/10 09:32:39;;;;;;;6.75;4.40;;;;;;;;;;5062083;28;20036;-74
2023/06/10 09:35:25;;;;;;;9.30;4.53;;;;;;;;;;5057959;28;20036;-63
2023/06/10 09:38:11;;;;;;;7.05;4.25;;;;;;;;;;5055120;28;20116;-65
2023/06/10 09:40:56;;;;;;;5.45;3.90;;;;;;;;;;5065494;28;20109;-66
2023/06/10 09:43:43;;;;;;;10.40;4.95;;;;;;;;;;5068628;28;20156;-67
2023/06/10 09:46:32;;;;;;;4.35;3.60;;;;;;;;;;5065406;28;20039;-67
2023/06/10 09:49:18;;;;;;;7.65;4.57;;;;;;;;;;5049307;28;20499;-68
2023/06/10 09:52:05;;;;;;;5.80;4.15;;;;;;;;;;5063911;28;20028;-66
2023/06/10 09:54:51;;;;;;;5.55;4.10;;;;;;;;;;5069139;28;20111;-67
2023/06/10 09:57:36;;;;;;;7.40;4.55;;;;;;;;;;5072910;28;20028;-66
2023/06/10 10:00:22;;;;;;;9.70;4.60;;;;;;;;;;5065584;28;20020;-65
2023/06/10 10:03:07;;;;;;;9.43;4.28;;;;;;;;;;5060135;28;20629;-67
2023/06/10 10:06:00;;;;;;;5.47;4.28;;;;;;;;;;5053149;28;20059;-67
2023/06/10 10:08:47;;;;;;;5.93;4.07;;;;;;;;;;5057325;28;20471;-67
2023/06/10 10:11:33;;;;;;;12.23;5.07;;;;;;;;;;5073179;28;20021;-68
2023/06/10 10:14:18;;;;;;;12.48;7.35;;;;;;;;;;5061391;28;20048;-68
2023/06/10 10:17:04;;;;;;;14.23;6.90;;;;;;;;;;5063092;28;20848;-70
2023/06/10 10:20:04;;;;;;;12.68;5.13;;;;;;;;;;5063655;28;20071;-68
2023/06/10 10:22:50;;;;;;;7.60;4.50;;;;;;;;;;5054595;28;20090;-69
2023/06/10 10:25:40;;;;;;;7.85;4.93;;;;;;;;;;5060252;28;20040;-67
2023/06/10 10:28:29;;;;;;;6.90;4.85;;;;;;;;;;5060651;28;20462;-65
2023/06/10 10:31:15;;;;;;;5.78;4.45;;;;;;;;;;5059291;28;20074;-62
2023/06/10 10:34:02;;;;;;;5.22;3.83;;;;;;;;;;5058222;28;20289;-62
2023/06/10 10:36:48;;;;;;;5.45;3.97;;;;;;;;;;5062254;28;20032;-64
2023/06/10 10:39:34;;;;;;;4.97;3.63;;;;;;;;;;5064161;28;20025;-65
2023/06/10 10:42:19;;;;;;;6.28;4.35;;;;;;;;;;5064894;28;20097;-63
2023/06/10 10:45:05;;;;;;;5.82;3.72;;;;;;;;;;5065753;28;20071;-65
2023/06/10 10:47:56;;;;;;;4.97;3.85;;;;;;;;;;5073701;28;20068;-63
2023/06/10 10:50:41;;;;;;;6.07;4.57;;;;;;;;;;5070653;28;20028;-64
2023/06/10 10:53:26;;;;;;;6.28;4.18;;;;;;;;;;5074092;28;20031;-63
2023/06/10 10:56:15;;;;;;;5.97;4.00;;;;;;;;;;5053850;28;20503;-64
2023/06/10 10:59:04;;;;;;;6.85;3.90;;;;;;;;;;5072166;28;20443;-62
2023/06/10 11:01:49;;;;;;;5.38;4.13;;;;;;;;;;5070843;28;20318;-64
2023/06/10 11:04:35;;;;;;;4.22;3.60;;;;;;;;;;5060407;28;20024;-65
2023/06/10 11:07:21;;;;;;;6.95;3.88;;;;;;;;;;5068550;28;20407;-73
2023/06/10 11:10:11;;;;;;;4.88;4.15;;;;;;;;;;5055195;28;20107;-75
2023/06/10 11:12:56;;;;;;;4.95;3.65;;;;;;;;;;5060757;28;20035;-73
2023/06/10 11:15:49;;;;;;;6.43;3.92;;;;;;;;;;5059681;28;20041;-75
2023/06/10 11:18:39;;;;;;;4.55;3.35;;;;;;;;;;5055490;28;20074;-74
2023/06/10 11:21:25;;;;;;;6.05;3.85;;;;;;;;;;5064277;28;20024;-71
2023/06/10 11:24:16;;;;;;;4.88;3.65;;;;;;;;;;5067826;28;20025;-70
2023/06/10 11:27:18;;;;;;;4.65;4.03;;;;;;;;;;5066864;28;20035;-71
2023/06/10 11:30:03;;;;;;;5.75;4.65;;;;;;;;;;5068398;28;20174;-71
2023/06/10 11:32:51;;;;;;;6.90;4.47;;;;;;;;;;5068317;28;20039;-72
2023/06/10 11:35:36;;;;;;;6.35;4.65;;;;;;;;;;5067448;28;20062;-73
2023/06/10 11:38:21;;;;;;;5.20;4.25;;;;;;;;;;5067838;28;20109;-72
2023/06/10 11:41:07;;;;;;;4.60;3.90;;;;;;;;;;5067457;28;20541;-72
2023/06/10 11:43:53;;;;;;;5.72;3.60;;;;;;;;;;5063455;28;20027;-72
2023/06/10 11:46:39;;;;;;;4.53;3.97;;;;;;;;;;5068257;28;20044;-72
2023/06/10 11:49:25;;;;;;;5.90;3.63;;;;;;;;;;5069792;28;20506;-71
2023/06/10 11:52:10;;;;;;;6.43;4.15;;;;;;;;;;5066122;28;20081;-72
2023/06/10 11:54:56;;;;;;;7.13;4.43;;;;;;;;;;5053502;28;20486;-71
2023/06/10 11:57:41;;;;;;;6.45;4.10;;;;;;;;;;5062865;28;20115;-71
2023/06/10 12:00:26;;;;;;;5.05;3.70;;;;;;;;;;5068331;28;20556;-71
2023/06/10 12:03:12;;;;;;;7.32;3.83;;;;;;;;;;5073659;28;20016;-69
2023/06/10 12:06:01;;;;;;;8.18;4.60;;;;;;;;;;5071321;28;20113;-70
2023/06/10 12:08:46;;;;;;;5.18;3.60;;;;;;;;;;5056849;28;20024;-69
2023/06/10 12:11:31;;;;;;;5.13;3.40;;;;;;;;;;5068358;28;20037;-70
2023/06/10 12:14:36;;;;;;;7.90;4.53;;;;;;;;;;5067287;28;20044;-70
2023/06/10 12:17:22;;;;;;;4.55;3.78;;;;;;;;;;5067319;28;20529;-75
2023/06/10 12:20:09;;;;;;;5.55;4.10;;;;;;;;;;5067730;28;20028;-75
2023/06/10 12:22:54;;;;;;;4.70;3.67;;;;;;;;;;5066063;28;20028;-73
2023/06/10 12:25:39;;;;;;;8.20;4.85;;;;;;;;;;5065235;28;20562;-73
2023/06/10 12:28:25;;;;;;;4.93;3.78;;;;;;;;;;5067853;28;20031;-74
2023/06/10 12:31:11;;;;;;;7.07;4.40;;;;;;;;;;5067675;28;20032;-73
2023/06/10 12:34:09;;;;;;;10.05;4.70;;;;;;;;;;5068095;28;20024;-74
2023/06/10 12:36:54;;;;;;;6.38;3.40;;;;;;;;;;5071182;28;20074;-66
2023/06/10 12:39:40;;;;;;;6.78;3.75;;;;;;;;;;5057385;28;20070;-68
2023/06/10 12:42:25;;;;;;;6.75;3.75;;;;;;;;;;5069741;28;20036;-65
2023/06/10 12:45:11;;;;;;;7.05;3.92;;;;;;;;;;5070656;28;20063;-67
2023/06/10 12:48:09;;;;;;;5.45;3.80;;;;;;;;;;5071515;28;20052;-66
2023/06/10 12:50:55;;;;;;;5.07;3.80;;;;;;;;;;5071064;28;20062;-68
2023/06/10 12:53:40;;;;;;;7.68;4.18;;;;;;;;;;5073787;28;20039;-72
2023/06/10 12:56:25;;;;;;;5.75;3.60;;;;;;;;;;5073105;28;20037;-66
2023/06/10 12:59:11;;;;;;;5.05;3.53;;;;;;;;;;5061126;28;20139;-67
2023/06/10 13:01:56;;;;;;;6.13;3.38;;;;;;;;;;5071006;28;20073;-65
2023/06/10 13:04:43;;;;;;;6.38;3.17;;;;;;;;;;5068728;28;20017;-65
2023/06/10 13:07:30;;;;;;;4.18;3.42;;;;;;;;;;5053920;28;20036;-67
2023/06/10 13:10:16;;;;;;;5.50;3.72;;;;;;;;;;5067533;28;20028;-66
2023/06/10 13:13:02;;;;;;;4.72;3.63;;;;;;;;;;5065987;28;20033;-67
2023/06/10 13:15:49;;;;;;;5.65;4.13;;;;;;;;;;5069836;28;20024;-64
2023/06/10 13:18:37;;;;;;;6.88;3.30;;;;;;;;;;5070392;28;20024;-65
2023/06/10 13:21:22;;;;;;;5.25;3.97;;;;;;;;;;5063232;28;20044;-64
2023/06/10 13:24:07;;;;;;;3.90;3.22;;;;;;;;;;5058822;28;20035;-63
2023/06/10 13:26:54;;;;;;;3.95;3.53;;;;;;;;;;5070594;28;20375;-64
2023/06/10 13:29:40;;;;;;;6.72;3.88;;;;;;;;;;5067369;28;20047;-64
2023/06/10 13:32:25;;;;;;;4.90;3.83;;;;;;;;;;5062389;28;20164;-69
2023/06/10 13:35:10;;;;;;;5.53;3.40;;;;;;;;;;5058588;28;20479;-74
2023/06/10 13:37:55;;;;;;;5.25;3.67;;;;;;;;;;5055065;28;20055;-74
2023/06/10 13:40:40;;;;;;;4.13;3.22;;;;;;;;;;5070618;28;20421;-73
2023/06/10 13:43:26;;;;;;;5.60;3.45;;;;;;;;;;5082720;28;20028;-72
2023/06/10 13:46:11;;;;;;;4.32;3.67;;;;;;;;;;5074593;28;20467;-76
2023/06/10 13:48:56;;;;;;;5.13;3.00;;;;;;;;;;5052860;28;20043;-70
2023/06/10 13:51:41;;;;;;;6.63;3.63;;;;;;;;;;5068957;28;20071;-72
2023/06/10 13:54:27;;;;;;;3.90;3.05;;;;;;;;;;5040502;28;20396;-71
2023/06/10 13:57:12;;;;;;;4.20;3.15;;;;;;;;;;5058603;28;20040;-74
2023/06/10 13:59:57;;;;;;;4.93;3.30;;;;;;;;;;5065185;28;20070;-72
2023/06/10 14:02:43;;;;;;;3.58;3.25;;;;;;;;;;5071377;28;20041;-73
2023/06/10 14:05:28;;;;;;;4.40;3.45;;;;;;;;;;5065897;28;20035;-72
2023/06/10 14:08:14;;;;;;;5.65;3.47;;;;;;;;;;5042473;28;20036;-74
2023/06/10 14:10:59;;;;;;;4.05;2.83;;;;;;;;;;5057468;28;20028;-66
2023/06/10 14:13:44;;;;;;;4.45;3.35;;;;;;;;;;5065436;28;20386;-66
2023/06/10 14:16:29;;;;;;;4.43;3.25;;;;;;;;;;5069465;28;20086;-66
2023/06/10 14:19:14;;;;;;;5.22;3.45;;;;;;;;;;5059274;28;20459;-66
2023/06/10 14:22:00;;;;;;;3.47;3.15;;;;;;;;;;5065227;28;20150;-66
2023/06/10 14:24:47;;;;;;;4.47;3.28;;;;;;;;;;5069168;28;20063;-68
2023/06/10 14:27:32;;;;;;;3.63;3.28;;;;;;;;;;5068888;28;20114;-65
2023/06/10 14:30:17;;;;;;;4.53;3.25;;;;;;;;;;5055152;28;20056;-64
2023/06/10 14:33:03;;;;;;;6.22;3.25;;;;;;;;;;5068985;28;20027;-63
2023/06/10 14:35:49;;;;;;;4.38;3.17;;;;;;;;;;5064578;28;20036;-62
2023/06/10 14:38:34;;;;;;;5.70;3.90;;;;;;;;;;5064479;28;20459;-63
2023/06/10 14:41:19;;;;;;;6.18;3.08;;;;;;;;;;5070820;28;20056;-64
2023/06/10 14:44:04;;;;;;;5.80;3.67;;;;;;;;;;5072335;28;20009;-73
2023/06/10 14:46:50;;;;;;;6.50;3.20;;;;;;;;;;5063389;28;20082;-67
2023/06/10 14:49:35;;;;;;;4.20;3.30;;;;;;;;;;5059614;28;20036;-71
2023/06/10 14:52:20;;;;;;;5.88;3.63;;;;;;;;;;5071203;28;20052;-67
2023/06/10 14:55:06;;;;;;;6.20;3.63;;;;;;;;;;5068513;28;20108;-69
2023/06/10 14:57:51;;;;;;;4.38;3.70;;;;;;;;;;5052959;28;20021;-68
2023/06/10 15:00:36;;;;;;;6.55;3.00;;;;;;;;;;5036634;28;20024;-67
2023/06/10 15:03:21;;;;;;;4.45;3.60;;;;;;;;;;5054983;28;20021;-68
2023/06/10 15:06:07;;;;;;;4.85;3.22;;;;;;;;;;5062241;28;20100;-63
2023/06/10 15:08:52;;;;;;;6.95;3.58;;;;;;;;;;5068504;28;20025;-65
2023/06/10 15:11:37;;;;;;;5.13;4.20;;;;;;;;;;5068498;28;20025;-63
2023/06/10 15:14:23;;;;;;;3.75;3.10;;;;;;;;;;5061895;28;20505;-64
2023/06/10 15:17:08;;;;;;;8.48;4.22;;;;;;;;;;5068243;28;20036;-63
2023/06/10 15:19:54;;;;;;;4.22;3.28;;;;;;;;;;5056272;28;20197;-63
2023/06/10 15:22:39;;;;;;;5.43;4.10;;;;;;;;;;5056451;28;20024;-74
2023/06/10 15:25:25;;;;;;;7.88;3.67;;;;;;;;;;5059342;28;20040;-69
2023/06/10 15:28:10;;;;;;;6.53;3.72;;;;;;;;;;5068296;28;20020;-69
2023/06/10 15:30:56;;;;;;;5.72;4.03;;;;;;;;;;5068146;28;20669;-67
2023/06/10 15:33:41;;;;;;;5.15;3.67;;;;;;;;;;5068511;28;20032;-66
2023/06/10 15:36:26;;;;;;;6.13;3.72;;;;;;;;;;5068074;28;20029;-65
2023/06/10 15:39:12;;;;;;;5.18;4.20;;;;;;;;;;5065799;28;20468;-64
2023/06/10 15:41:57;;;;;;;5.95;4.18;;;;;;;;;;5067410;28;20031;-66
2023/06/10 15:44:42;;;;;;;4.30;3.60;;;;;;;;;;5070482;28;20314;-69
2023/06/10 15:47:27;;;;;;;5.97;4.18;;;;;;;;;;5068517;28;20063;-66
2023/06/10 15:50:13;;;;;;;4.28;3.00;;;;;;;;;;5070963;28;20032;-66
2023/06/10 15:52:58;;;;;;;3.72;3.33;;;;;;;;;;5066600;28;20031;-66
2023/06/10 15:55:43;;;;;;;4.75;4.00;;;;;;;;;;5063389;28;20456;-68
2023/06/10 15:58:28;;;;;;;5.25;3.88;;;;;;;;;;5067710;28;20463;-64
2023/06/10 16:01:14;;;;;;;5.05;3.70;;;;;;;;;;5063770;28;20118;-66
2023/06/10 16:03:59;;;;;;;5.00;3.85;;;;;;;;;;5062191;28;20555;-69
2023/06/10 16:06:44;;;;;;;7.07;4.20;;;;;;;;;;5059268;28;20036;-69
2023/06/10 16:09:30;;;;;;;4.60;3.58;;;;;;;;;;5070314;28;20064;-68
2023/06/10 16:12:15;;;;;;;5.63;3.00;;;;;;;;;;5069496;28;20124;-68
2023/06/10 16:15:00;;;;;;;3.28;2.83;;;;;;;;;;5061256;28;20415;-68
2023/06/10 16:17:46;;;;;;;3.88;3.15;;;;;;;;;;5076120;28;20056;-66
2023/06/10 16:20:34;;;;;;;4.43;2.85;;;;;;;;;;5067861;28;20480;-73
2023/06/10 16:23:20;;;;;;;4.32;3.50;;;;;;;;;;5063273;28;20033;-72
2023/06/10 16:26:05;;;;;;;5.60;3.25;;;;;;;;;;5054063;28;20028;-74
2023/06/10 16:28:51;;;;;;;4.05;2.95;;;;;;;;;;5062619;28;20029;-74
2023/06/10 16:31:36;;;;;;;4.13;3.28;;;;;;;;;;5071189;28;20463;-74
2023/06/10 16:34:21;;;;;;;3.65;2.75;;;;;;;;;;5071432;28;20020;-70